sensor_id;sensor_type;location;lat;lon;timestamp;pressure;altitude;pressure_sealevel;temperature;humidity
48624;BME280;34422;45.802;16.114;2023-07-13T00:01:53;66398.38;;;24.45;100.00
48624;BME280;34422;45.802;16.114;2023-07-13T00:04:22;66405.44;;;24.49;100.00
48624;BME280;34422;45.802;16.114;2023-07-13T00:06:49;66403.81;;;24.48;100.00
48624;BME280;34422;45.802;16.114;2023-07-13T00:09:18;66405.44;;;24.52;100.00
48624;BME280;34422;45.802;16.114;2023-07-13T00:11:45;66412.53;;;24.56;100.00
48624;BME280;34422;45.802;16.114;2023-07-13T00:14:14;66407.03;;;24.56;100.00
48624;BME280;34422;45.802;16.114;2023-07-13T00:16:42;66406.50;;;24.55;100.00
48624;BME280;34422;45.802;16.114;2023-07-13T00:19:12;66388.00;;;24.38;100.00
48624;BME280;34422;45.802;16.114;2023-07-13T00:21:40;66388.00;;;24.35;100.00
48624;BME280;34422;45.802;16.114;2023-07-13T00:24:10;66362.44;;;24.09;100.00
48624;BME280;34422;45.802;16.114;2023-07-13T00:26:41;66338.50;;;23.87;100.00
48624;BME280;34422;45.802;16.114;2023-07-13T00:29:12;66333.03;;;23.82;100.00
48624;BME280;34422;45.802;16.114;2023-07-13T00:31:40;66323.25;;;23.72;100.00
48624;BME280;34422;45.802;16.114;2023-07-13T00:34:07;66288.94;;;23.43;100.00
48624;BME280;34422;45.802;16.114;2023-07-13T00:36:34;66315.63;;;23.68;100.00
48624;BME280;34422;45.802;16.114;2023-07-13T00:39:01;66324.34;;;23.73;100.00
48624;BME280;34422;45.802;16.114;2023-07-13T00:41:28;66322.13;;;23.77;100.00
48624;BME280;34422;45.802;16.114;2023-07-13T00:43:55;66318.31;;;23.73;100.00
48624;BME280;34422;45.802;16.114;2023-07-13T00:46:30;66315.63;;;23.65;100.00
48624;BME280;34422;45.802;16.114;2023-07-13T00:49:01;66300.94;;;23.52;100.00
48624;BME280;34422;45.802;16.114;2023-07-13T00:51:34;66302.56;;;23.53;100.00
48624;BME280;34422;45.802;16.114;2023-07-13T00:54:07;66315.06;;;23.67;100.00
48624;BME280;34422;45.802;16.114;2023-07-13T00:56:36;66323.25;;;23.75;100.00
48624;BME280;34422;45.802;16.114;2023-07-13T00:59:05;66325.38;;;23.80;100.00
48624;BME280;34422;45.802;16.114;2023-07-13T01:01:33;66327.56;;;23.82;100.00
48624;BME280;34422;45.802;16.114;2023-07-13T01:04:00;66331.38;;;23.83;100.00
48624;BME280;34422;45.802;16.114;2023-07-13T01:06:26;66337.94;;;23.86;100.00
48624;BME280;34422;45.802;16.114;2023-07-13T01:08:54;66340.09;;;23.91;100.00
48624;BME280;34422;45.802;16.114;2023-07-13T01:11:22;66342.31;;;23.90;100.00
48624;BME280;34422;45.802;16.114;2023-07-13T01:13:49;66331.34;;;23.88;100.00
48624;BME280;34422;45.802;16.114;2023-07-13T01:16:28;66334.13;;;23.83;100.00
48624;BME280;34422;45.802;16.114;2023-07-13T01:18:56;66321.59;;;23.73;100.00
48624;BME280;34422;45.802;16.114;2023-07-13T01:21:29;66319.97;;;23.69;100.00
48624;BME280;34422;45.802;16.114;2023-07-13T01:23:56;66315.59;;;23.70;100.00
48624;BME280;34422;45.802;16.114;2023-07-13T01:26:23;66310.72;;;23.63;100.00
48624;BME280;34422;45.802;16.114;2023-07-13T01:28:50;66312.38;;;23.62;100.00
48624;BME280;34422;45.802;16.114;2023-07-13T01:31:17;66312.41;;;23.57;100.00
48624;BME280;34422;45.802;16.114;2023-07-13T01:33:44;66306.38;;;23.57;100.00
48624;BME280;34422;45.802;16.114;2023-07-13T01:36:11;66304.75;;;23.55;100.00
48624;BME280;34422;45.802;16.114;2023-07-13T01:38:38;66296.00;;;23.52;100.00
48624;BME280;34422;45.802;16.114;2023-07-13T01:41:05;66302.03;;;23.53;100.00
48624;BME280;34422;45.802;16.114;2023-07-13T01:43:31;66300.91;;;23.59;100.00
48624;BME280;34422;45.802;16.114;2023-07-13T01:45:59;66298.19;;;23.54;100.00
48624;BME280;34422;45.802;16.114;2023-07-13T01:48:25;66297.09;;;23.53;100.00
48624;BME280;34422;45.802;16.114;2023-07-13T01:50:52;66290.56;;;23.47;100.00
48624;BME280;34422;45.802;16.114;2023-07-13T01:53:19;66297.13;;;23.48;100.00
48624;BME280;34422;45.802;16.114;2023-07-13T01:55:46;66282.38;;;23.39;100.00
48624;BME280;34422;45.802;16.114;2023-07-13T01:58:13;66282.41;;;23.37;100.00
48624;BME280;34422;45.802;16.114;2023-07-13T02:00:40;66286.78;;;23.38;100.00
48624;BME280;34422;45.802;16.114;2023-07-13T02:03:06;66284.59;;;23.39;100.00
48624;BME280;34422;45.802;16.114;2023-07-13T02:05:33;66281.28;;;23.38;100.00
48624;BME280;34422;45.802;16.114;2023-07-13T02:08:00;66279.13;;;23.36;100.00
48624;BME280;34422;45.802;16.114;2023-07-13T02:10:26;66282.94;;;23.37;100.00
48624;BME280;34422;45.802;16.114;2023-07-13T02:12:55;66278.59;;;23.36;100.00
48624;BME280;34422;45.802;16.114;2023-07-13T02:15:21;66268.81;;;23.24;100.00
48624;BME280;34422;45.802;16.114;2023-07-13T02:17:48;66266.66;;;23.22;100.00
48624;BME280;34422;45.802;16.114;2023-07-13T02:20:15;66273.72;;;23.26;100.00
48624;BME280;34422;45.802;16.114;2023-07-13T02:22:42;66272.09;;;23.25;100.00
48624;BME280;34422;45.802;16.114;2023-07-13T02:25:09;66269.88;;;23.28;100.00
48624;BME280;34422;45.802;16.114;2023-07-13T02:27:36;66256.84;;;23.16;100.00
48624;BME280;34422;45.802;16.114;2023-07-13T02:30:03;66270.97;;;23.29;100.00
48624;BME280;34422;45.802;16.114;2023-07-13T02:32:30;66273.72;;;23.29;100.00
48624;BME280;34422;45.802;16.114;2023-07-13T02:34:56;66275.88;;;23.31;100.00
48624;BME280;34422;45.802;16.114;2023-07-13T02:37:23;66281.88;;;23.36;100.00
48624;BME280;34422;45.802;16.114;2023-07-13T02:39:50;66285.66;;;23.40;100.00
48624;BME280;34422;45.802;16.114;2023-07-13T02:42:17;66288.94;;;23.43;100.00
48624;BME280;34422;45.802;16.114;2023-07-13T02:44:44;66282.94;;;23.40;100.00
48624;BME280;34422;45.802;16.114;2023-07-13T02:47:10;66288.94;;;23.43;100.00
48624;BME280;34422;45.802;16.114;2023-07-13T02:49:37;66302.03;;;23.53;100.00
48624;BME280;34422;45.802;16.114;2023-07-13T02:52:04;66303.66;;;23.54;100.00
48624;BME280;34422;45.802;16.114;2023-07-13T02:54:31;66302.53;;;23.58;100.00
48624;BME280;34422;45.802;16.114;2023-07-13T02:56:58;66306.94;;;23.57;100.00
48624;BME280;34422;45.802;16.114;2023-07-13T02:59:25;66299.84;;;23.51;100.00
48624;BME280;34422;45.802;16.114;2023-07-13T03:01:52;66297.13;;;23.48;100.00
48624;BME280;34422;45.802;16.114;2023-07-13T03:04:19;66287.28;;;23.44;100.00
48624;BME280;34422;45.802;16.114;2023-07-13T03:14:22;66293.81;;;23.50;100.00
48624;BME280;34422;45.802;16.114;2023-07-13T03:16:49;66308.53;;;23.64;100.00
48624;BME280;34422;45.802;16.114;2023-07-13T03:19:15;66300.38;;;23.56;100.00
48624;BME280;34422;45.802;16.114;2023-07-13T03:21:43;66298.19;;;23.54;100.00
48624;BME280;34422;45.802;16.114;2023-07-13T03:24:09;66302.56;;;23.56;100.00
48624;BME280;34422;45.802;16.114;2023-07-13T03:26:37;66306.91;;;23.60;100.00
48624;BME280;34422;45.802;16.114;2023-07-13T03:29:03;66317.22;;;23.72;100.00
48624;BME280;34422;45.802;16.114;2023-07-13T03:31:34;66340.66;;;23.89;100.00
48624;BME280;34422;45.802;16.114;2023-07-13T03:34:01;66347.16;;;24.00;100.00
48624;BME280;34422;45.802;16.114;2023-07-13T03:36:29;66352.59;;;24.05;100.00
48624;BME280;34422;45.802;16.114;2023-07-13T03:38:59;66356.41;;;24.08;100.00
48624;BME280;34422;45.802;16.114;2023-07-13T03:41:26;66372.78;;;24.19;100.00
48624;BME280;34422;45.802;16.114;2023-07-13T03:43:53;66370.53;;;24.22;100.00
48624;BME280;34422;45.802;16.114;2023-07-13T03:46:20;66371.09;;;24.22;100.00
48624;BME280;34422;45.802;16.114;2023-07-13T03:48:47;66371.66;;;24.20;100.00
48624;BME280;34422;45.802;16.114;2023-07-13T03:51:16;66357.47;;;24.15;100.00
48624;BME280;34422;45.802;16.114;2023-07-13T03:53:45;66358.56;;;24.10;100.00
48624;BME280;34422;45.802;16.114;2023-07-13T03:56:14;66365.69;;;24.12;100.00
48624;BME280;34422;45.802;16.114;2023-07-13T03:58:43;66358.56;;;24.13;100.00
48624;BME280;34422;45.802;16.114;2023-07-13T04:01:12;66361.31;;;24.13;99.42
48624;BME280;34422;45.802;16.114;2023-07-13T04:03:39;66371.16;;;24.17;99.45
48624;BME280;34422;45.802;16.114;2023-07-13T04:06:07;66375.47;;;24.21;97.81
48624;BME280;34422;45.802;16.114;2023-07-13T04:08:36;66377.09;;;24.28;86.29
48624;BME280;34422;45.802;16.114;2023-07-13T04:11:04;66401.06;;;24.50;80.43
48624;BME280;34422;45.802;16.114;2023-07-13T04:13:31;66412.50;;;24.58;77.92
48624;BME280;34422;45.802;16.114;2023-07-13T04:15:58;66414.16;;;24.60;76.19
48624;BME280;34422;45.802;16.114;2023-07-13T04:18:25;66420.16;;;24.63;74.81
48624;BME280;34422;45.802;16.114;2023-07-13T04:20:52;66400.47;;;24.55;72.89
48624;BME280;34422;45.802;16.114;2023-07-13T04:23:19;66411.44;;;24.55;73.36
48624;BME280;34422;45.802;16.114;2023-07-13T04:25:46;66401.66;;;24.46;75.71
48624;BME280;34422;45.802;16.114;2023-07-13T04:28:16;66367.81;;;24.22;78.00
48624;BME280;34422;45.802;16.114;2023-07-13T04:30:44;66350.44;;;24.03;80.39
48624;BME280;34422;45.802;16.114;2023-07-13T04:33:11;66349.88;;;24.02;81.30
48624;BME280;34422;45.802;16.114;2023-07-13T04:35:38;66344.47;;;23.92;83.59
48624;BME280;34422;45.802;16.114;2023-07-13T04:38:05;66308.00;;;23.63;87.32
48624;BME280;34422;45.802;16.114;2023-07-13T04:40:32;66290.00;;;23.47;89.72
48624;BME280;34422;45.802;16.114;2023-07-13T04:42:59;66270.94;;;23.34;91.45
48624;BME280;34422;45.802;16.114;2023-07-13T04:45:26;66277.53;;;23.30;92.46
48624;BME280;34422;45.802;16.114;2023-07-13T04:47:53;66282.97;;;23.35;92.24
48624;BME280;34422;45.802;16.114;2023-07-13T04:50:20;66283.50;;;23.38;92.33
48624;BME280;34422;45.802;16.114;2023-07-13T04:52:50;66292.75;;;23.49;91.32
48624;BME280;34422;45.802;16.114;2023-07-13T04:55:18;66319.97;;;23.74;91.42
48624;BME280;34422;45.802;16.114;2023-07-13T04:57:46;66332.50;;;23.79;90.35
48624;BME280;34422;45.802;16.114;2023-07-13T05:00:14;66341.19;;;23.92;90.04
48624;BME280;34422;45.802;16.114;2023-07-13T05:02:44;66353.13;;;24.08;90.27
48624;BME280;34422;45.802;16.114;2023-07-13T05:05:11;66352.63;;;24.02;89.47
48624;BME280;34422;45.802;16.114;2023-07-13T05:07:38;66385.81;;;24.33;87.56
48624;BME280;34422;45.802;16.114;2023-07-13T05:10:06;66417.97;;;24.61;85.59
48624;BME280;34422;45.802;16.114;2023-07-13T05:12:32;66426.63;;;24.74;83.75
48624;BME280;34422;45.802;16.114;2023-07-13T05:14:59;66447.34;;;24.93;83.43
48624;BME280;34422;45.802;16.114;2023-07-13T05:17:26;66505.59;;;25.53;80.27
48624;BME280;34422;45.802;16.114;2023-07-13T05:19:56;66511.09;;;25.50;78.33
48624;BME280;34422;45.802;16.114;2023-07-13T05:22:23;66540.53;;;25.77;77.65
48624;BME280;34422;45.802;16.114;2023-07-13T05:24:49;66597.78;;;26.31;75.33
48624;BME280;34422;45.802;16.114;2023-07-13T05:27:16;66602.13;;;26.37;74.01
48624;BME280;34422;45.802;16.114;2023-07-13T05:29:43;66670.84;;;27.01;71.62
48624;BME280;34422;45.802;16.114;2023-07-13T05:32:11;66682.31;;;27.09;68.73
48624;BME280;34422;45.802;16.114;2023-07-13T05:34:37;66653.94;;;26.83;70.94
48624;BME280;34422;45.802;16.114;2023-07-13T05:37:04;66694.28;;;27.23;69.11
48624;BME280;34422;45.802;16.114;2023-07-13T05:39:31;66687.19;;;27.16;69.99
48624;BME280;34422;45.802;16.114;2023-07-13T05:41:58;66729.78;;;27.53;68.41
48624;BME280;34422;45.802;16.114;2023-07-13T05:44:25;66765.22;;;27.89;65.27
48624;BME280;34422;45.802;16.114;2023-07-13T05:46:52;66738.44;;;27.69;65.53
48624;BME280;34422;45.802;16.114;2023-07-13T05:49:18;66750.47;;;27.75;66.43
48624;BME280;34422;45.802;16.114;2023-07-13T05:51:45;66808.88;;;28.32;62.96
48624;BME280;34422;45.802;16.114;2023-07-13T05:54:12;66808.94;;;28.27;63.46
48624;BME280;34422;45.802;16.114;2023-07-13T05:56:38;66850.34;;;28.71;62.84
48624;BME280;34422;45.802;16.114;2023-07-13T05:59:05;66819.81;;;28.40;60.76
48624;BME280;34422;45.802;16.114;2023-07-13T06:01:32;66846.06;;;28.61;61.34
48624;BME280;34422;45.802;16.114;2023-07-13T06:04:00;66823.06;;;28.45;62.45
48624;BME280;34422;45.802;16.114;2023-07-13T06:06:27;66827.47;;;28.44;62.00
48624;BME280;34422;45.802;16.114;2023-07-13T06:08:53;66881.03;;;28.94;59.36
48624;BME280;34422;45.802;16.114;2023-07-13T06:11:25;66870.59;;;28.87;60.11
48624;BME280;34422;45.802;16.114;2023-07-13T06:13:53;66826.41;;;28.43;63.32
48624;BME280;34422;45.802;16.114;2023-07-13T06:16:21;66852.03;;;28.70;60.24
48624;BME280;34422;45.802;16.114;2023-07-13T06:18:48;66895.19;;;29.10;58.94
48624;BME280;34422;45.802;16.114;2023-07-13T06:21:19;66917.56;;;29.30;58.04
48624;BME280;34422;45.802;16.114;2023-07-13T06:23:48;66839.47;;;28.58;59.98
48624;BME280;34422;45.802;16.114;2023-07-13T06:26:16;66831.28;;;28.50;61.86
48624;BME280;34422;45.802;16.114;2023-07-13T06:28:43;66845.50;;;28.61;60.33
48624;BME280;34422;45.802;16.114;2023-07-13T06:31:11;66934.00;;;29.46;59.02
48624;BME280;34422;45.802;16.114;2023-07-13T06:33:39;66949.28;;;29.60;58.43
48624;BME280;34422;45.802;16.114;2023-07-13T06:36:06;66953.59;;;29.66;56.93
48624;BME280;34422;45.802;16.114;2023-07-13T06:38:34;66906.72;;;29.15;59.17
48624;BME280;34422;45.802;16.114;2023-07-13T06:41:01;66987.53;;;29.95;55.35
48624;BME280;34422;45.802;16.114;2023-07-13T06:43:28;66888.09;;;29.03;58.78
48624;BME280;34422;45.802;16.114;2023-07-13T06:45:56;66815.44;;;28.36;61.32
48624;BME280;34422;45.802;16.114;2023-07-13T06:48:23;66870.03;;;28.89;60.36
48624;BME280;34422;45.802;16.114;2023-07-13T06:50:50;66964.59;;;29.74;56.16
48624;BME280;34422;45.802;16.114;2023-07-13T06:53:19;66973.31;;;29.82;55.61
48624;BME280;34422;45.802;16.114;2023-07-13T06:55:48;66993.00;;;30.00;55.46
48624;BME280;34422;45.802;16.114;2023-07-13T06:58:16;66940.00;;;29.51;56.50
48624;BME280;34422;45.802;16.114;2023-07-13T07:00:44;67024.72;;;30.30;53.85
48624;BME280;34422;45.802;16.114;2023-07-13T07:03:12;67015.91;;;30.27;53.55
48624;BME280;34422;45.802;16.114;2023-07-13T07:05:39;66959.69;;;29.67;56.17
48624;BME280;34422;45.802;16.114;2023-07-13T07:08:06;67035.59;;;30.43;54.23
48624;BME280;34422;45.802;16.114;2023-07-13T07:10:34;67053.19;;;30.54;56.84
48624;BME280;34422;45.802;16.114;2023-07-13T07:13:01;67020.84;;;30.29;53.88
48624;BME280;34422;45.802;16.114;2023-07-13T07:15:28;67030.16;;;30.35;52.18
48624;BME280;34422;45.802;16.114;2023-07-13T07:17:56;67051.53;;;30.52;53.05
48624;BME280;34422;45.802;16.114;2023-07-13T07:20:23;67125.84;;;31.29;50.63
48624;BME280;34422;45.802;16.114;2023-07-13T07:22:50;67034.56;;;30.39;54.48
48624;BME280;34422;45.802;16.114;2023-07-13T07:25:17;67145.59;;;31.42;52.27
48624;BME280;34422;45.802;16.114;2023-07-13T07:27:44;67288.97;;;32.77;47.41
48624;BME280;34422;45.802;16.114;2023-07-13T07:30:12;67077.25;;;30.76;52.15
48624;BME280;34422;45.802;16.114;2023-07-13T07:32:39;67211.72;;;32.08;50.55
48624;BME280;34422;45.802;16.114;2023-07-13T07:35:06;67190.47;;;31.84;50.28
48624;BME280;34422;45.802;16.114;2023-07-13T07:37:33;67173.97;;;31.73;49.86
48624;BME280;34422;45.802;16.114;2023-07-13T07:39:59;67169.09;;;31.64;49.64
48624;BME280;34422;45.802;16.114;2023-07-13T07:42:27;67317.41;;;33.06;46.77
48624;BME280;34422;45.802;16.114;2023-07-13T07:44:54;67214.50;;;32.08;49.81
48624;BME280;34422;45.802;16.114;2023-07-13T07:47:21;67282.91;;;32.74;47.36
48624;BME280;34422;45.802;16.114;2023-07-13T07:49:49;67200.28;;;31.95;48.60
48624;BME280;34422;45.802;16.114;2023-07-13T07:52:16;67255.59;;;32.44;48.35
48624;BME280;34422;45.802;16.114;2023-07-13T07:54:43;67234.22;;;32.27;47.83
48624;BME280;34422;45.802;16.114;2023-07-13T07:57:10;67133.00;;;31.30;51.42
48624;BME280;34422;45.802;16.114;2023-07-13T07:59:37;67214.00;;;32.05;49.65
48624;BME280;34422;45.802;16.114;2023-07-13T08:02:05;67192.09;;;31.85;52.20
48624;BME280;34422;45.802;16.114;2023-07-13T08:04:32;67286.84;;;32.70;48.37
48624;BME280;34422;45.802;16.114;2023-07-13T08:06:59;67365.13;;;33.48;46.86
48624;BME280;34422;45.802;16.114;2023-07-13T08:09:29;67381.50;;;33.66;44.67
48624;BME280;34422;45.802;16.114;2023-07-13T08:11:56;67505.97;;;34.78;41.75
48624;BME280;34422;45.802;16.114;2023-07-13T08:14:23;67485.63;;;34.62;41.36
48624;BME280;34422;45.802;16.114;2023-07-13T08:16:50;67396.94;;;33.75;43.05
48624;BME280;34422;45.802;16.114;2023-07-13T08:19:17;67124.19;;;31.27;51.27
48624;BME280;34422;45.802;16.114;2023-07-13T08:21:44;67114.97;;;31.14;52.93
48624;BME280;34422;45.802;16.114;2023-07-13T08:24:10;67071.69;;;30.76;55.51
48624;BME280;34422;45.802;16.114;2023-07-13T08:26:37;67151.09;;;31.44;53.26
48624;BME280;34422;45.802;16.114;2023-07-13T08:29:04;67385.41;;;33.64;46.29
48624;BME280;34422;45.802;16.114;2023-07-13T08:31:31;67344.34;;;33.26;46.30
48624;BME280;34422;45.802;16.114;2023-07-13T08:33:58;67617.38;;;35.79;40.70
48624;BME280;34422;45.802;16.114;2023-07-13T08:36:26;67510.97;;;34.80;42.45
48624;BME280;34422;45.802;16.114;2023-07-13T08:38:54;67499.88;;;34.75;42.53
48624;BME280;34422;45.802;16.114;2023-07-13T08:41:21;67615.63;;;35.82;40.36
48624;BME280;34422;45.802;16.114;2023-07-13T08:43:51;67612.34;;;35.79;39.88
48624;BME280;34422;45.802;16.114;2023-07-13T08:48:52;67412.88;;;33.87;43.79
48624;BME280;34422;45.802;16.114;2023-07-13T08:51:48;67525.75;;;34.94;41.09
48624;BME280;34422;45.802;16.114;2023-07-13T08:54:39;67434.66;;;34.15;44.03
48624;BME280;34422;45.802;16.114;2023-07-13T08:57:17;67399.69;;;33.77;45.16
48624;BME280;34422;45.802;16.114;2023-07-13T08:59:45;67425.88;;;34.07;43.45
48624;BME280;34422;45.802;16.114;2023-07-13T09:02:39;67441.13;;;34.26;42.97
48624;BME280;34422;45.802;16.114;2023-07-13T09:05:14;67471.38;;;34.49;42.55
48624;BME280;34422;45.802;16.114;2023-07-13T09:15:49;67394.16;;;33.75;45.97
48624;BME280;34422;45.802;16.114;2023-07-13T09:18:28;67369.44;;;33.54;45.20
48624;BME280;34422;45.802;16.114;2023-07-13T09:23:30;67284.06;;;32.73;49.34
48624;BME280;34422;45.802;16.114;2023-07-13T09:26:13;67347.09;;;33.29;47.59
48624;BME280;34422;45.802;16.114;2023-07-13T09:28:45;67281.81;;;32.73;48.16
48624;BME280;34422;45.802;16.114;2023-07-13T09:31:32;67232.53;;;32.28;49.76
48624;BME280;34422;45.802;16.114;2023-07-13T09:34:01;67310.84;;;33.00;47.04
48624;BME280;34422;45.802;16.114;2023-07-13T09:36:30;67253.38;;;32.44;48.89
48624;BME280;34422;45.802;16.114;2023-07-13T09:39:04;67357.41;;;33.43;47.45
48624;BME280;34422;45.802;16.114;2023-07-13T09:41:49;67373.38;;;33.53;46.55
48624;BME280;34422;45.802;16.114;2023-07-13T09:44:53;67301.97;;;32.97;47.23
48624;BME280;34422;45.802;16.114;2023-07-13T09:50:04;67266.00;;;32.54;49.04
48624;BME280;34422;45.802;16.114;2023-07-13T09:52:46;67322.38;;;33.08;47.78
48624;BME280;34422;45.802;16.114;2023-07-13T09:57:53;67182.19;;;31.81;52.29
48624;BME280;34422;45.802;16.114;2023-07-13T10:00:28;67224.88;;;32.21;52.51
48624;BME280;34422;45.802;16.114;2023-07-13T10:03:01;67305.84;;;32.98;51.59
48624;BME280;34422;45.802;16.114;2023-07-13T10:05:38;67333.81;;;33.24;49.79
48624;BME280;34422;45.802;16.114;2023-07-13T10:08:05;67399.22;;;33.72;47.18
48624;BME280;34422;45.802;16.114;2023-07-13T10:10:37;67408.41;;;33.88;48.78
48624;BME280;34422;45.802;16.114;2023-07-13T10:13:03;67279.09;;;32.68;49.68
48624;BME280;34422;45.802;16.114;2023-07-13T10:15:32;67275.81;;;32.65;50.09
48624;BME280;34422;45.802;16.114;2023-07-13T10:17:59;67285.16;;;32.74;50.85
48624;BME280;34422;45.802;16.114;2023-07-13T10:20:27;67266.47;;;32.59;49.64
48624;BME280;34422;45.802;16.114;2023-07-13T10:22:59;67294.44;;;32.82;49.23
48624;BME280;34422;45.802;16.114;2023-07-13T10:25:32;67292.81;;;32.81;48.32
48624;BME280;34422;45.802;16.114;2023-07-13T10:28:03;67218.41;;;32.07;50.42
48624;BME280;34422;45.802;16.114;2023-07-13T10:30:35;67194.78;;;31.93;52.30
48624;BME280;34422;45.802;16.114;2023-07-13T10:33:10;67297.16;;;32.88;49.29
48624;BME280;34422;45.802;16.114;2023-07-13T10:35:40;67262.19;;;32.50;51.39
48624;BME280;34422;45.802;16.114;2023-07-13T10:38:13;67183.84;;;31.83;52.21
48624;BME280;34422;45.802;16.114;2023-07-13T10:43:32;67259.38;;;32.53;48.86
48624;BME280;34422;45.802;16.114;2023-07-13T10:46:01;67242.47;;;32.32;50.41
48624;BME280;34422;45.802;16.114;2023-07-13T10:48:29;67231.44;;;32.27;49.41
48624;BME280;34422;45.802;16.114;2023-07-13T10:50:59;67313.66;;;32.98;49.17
48624;BME280;34422;45.802;16.114;2023-07-13T10:53:32;67290.66;;;32.76;49.91
48624;BME280;34422;45.802;16.114;2023-07-13T10:56:24;67258.28;;;32.52;49.37
48624;BME280;34422;45.802;16.114;2023-07-13T10:59:02;67238.09;;;32.28;50.16
48624;BME280;34422;45.802;16.114;2023-07-13T11:02:05;67111.13;;;31.10;51.96
48624;BME280;34422;45.802;16.114;2023-07-13T11:04:46;67191.44;;;31.92;51.40
48624;BME280;34422;45.802;16.114;2023-07-13T11:07:23;67158.63;;;31.59;51.41
48624;BME280;34422;45.802;16.114;2023-07-13T11:09:57;67188.25;;;31.84;51.12
48624;BME280;34422;45.802;16.114;2023-07-13T11:20:23;67246.84;;;32.36;50.48
48624;BME280;34422;45.802;16.114;2023-07-13T11:23:08;67254.00;;;32.40;49.42
48624;BME280;34422;45.802;16.114;2023-07-13T11:25:36;67189.28;;;31.88;52.08
48624;BME280;34422;45.802;16.114;2023-07-13T11:33:31;67241.84;;;32.36;50.11
48624;BME280;34422;45.802;16.114;2023-07-13T11:36:16;67254.50;;;32.43;49.97
48624;BME280;34422;45.802;16.114;2023-07-13T11:38:51;67259.91;;;32.53;50.50
48624;BME280;34422;45.802;16.114;2023-07-13T11:41:25;67188.84;;;31.82;53.20
48624;BME280;34422;45.802;16.114;2023-07-13T11:43:54;67214.50;;;32.08;53.17
48624;BME280;34422;45.802;16.114;2023-07-13T11:46:26;67251.81;;;32.38;52.73
48624;BME280;34422;45.802;16.114;2023-07-13T11:48:54;67207.97;;;32.00;51.75
48624;BME280;34422;45.802;16.114;2023-07-13T11:51:29;67250.06;;;32.44;50.58
48624;BME280;34422;45.802;16.114;2023-07-13T11:54:11;67300.50;;;32.86;49.47
48624;BME280;34422;45.802;16.114;2023-07-13T11:56:42;67221.19;;;32.07;51.49
48624;BME280;34422;45.802;16.114;2023-07-13T11:59:11;67264.28;;;32.57;51.13
48624;BME280;34422;45.802;16.114;2023-07-13T12:01:45;67252.91;;;32.39;51.67
48624;BME280;34422;45.802;16.114;2023-07-13T12:04:31;67247.84;;;32.42;53.23
48624;BME280;34422;45.802;16.114;2023-07-13T12:07:06;67220.03;;;32.11;51.98
48624;BME280;34422;45.802;16.114;2023-07-13T12:09:35;67165.81;;;31.61;54.42
48624;BME280;34422;45.802;16.114;2023-07-13T12:12:03;67212.81;;;32.09;53.93
48624;BME280;34422;45.802;16.114;2023-07-13T12:14:33;67099.06;;;31.01;54.04
48624;BME280;34422;45.802;16.114;2023-07-13T12:17:00;67141.75;;;31.38;53.83
48624;BME280;34422;45.802;16.114;2023-07-13T12:19:28;67142.34;;;31.36;54.74
48624;BME280;34422;45.802;16.114;2023-07-13T12:21:57;67044.91;;;30.51;58.06
48624;BME280;34422;45.802;16.114;2023-07-13T12:24:25;67113.88;;;31.13;55.31
48624;BME280;34422;45.802;16.114;2023-07-13T12:26:59;67162.47;;;31.63;54.63
48624;BME280;34422;45.802;16.114;2023-07-13T12:29:27;67122.66;;;31.18;54.68
48624;BME280;34422;45.802;16.114;2023-07-13T12:31:55;67108.38;;;31.07;55.99
48624;BME280;34422;45.802;16.114;2023-07-13T12:34:24;67170.22;;;31.65;55.01
48624;BME280;34422;45.802;16.114;2023-07-13T12:36:53;67116.63;;;31.15;54.68
48624;BME280;34422;45.802;16.114;2023-07-13T12:39:37;67166.91;;;31.64;53.83
48624;BME280;34422;45.802;16.114;2023-07-13T12:42:23;67170.16;;;31.70;54.08
48624;BME280;34422;45.802;16.114;2023-07-13T12:44:54;67159.19;;;31.60;53.54
48624;BME280;34422;45.802;16.114;2023-07-13T12:47:22;67187.75;;;31.81;53.52
48624;BME280;34422;45.802;16.114;2023-07-13T12:49:54;67116.00;;;31.17;55.21
48624;BME280;34422;45.802;16.114;2023-07-13T12:52:33;67133.53;;;31.31;55.95
48624;BME280;34422;45.802;16.114;2023-07-13T12:55:20;67088.16;;;30.89;55.45
48624;BME280;34422;45.802;16.114;2023-07-13T12:57:53;67076.13;;;30.78;57.69
48624;BME280;34422;45.802;16.114;2023-07-13T13:00:36;67029.69;;;30.32;59.17
48624;BME280;34422;45.802;16.114;2023-07-13T13:03:21;67014.88;;;30.21;60.83
48624;BME280;34422;45.802;16.114;2023-07-13T13:05:49;67049.31;;;30.53;58.64
48624;BME280;34422;45.802;16.114;2023-07-13T13:08:15;67037.75;;;30.47;58.23
48624;BME280;34422;45.802;16.114;2023-07-13T13:10:42;66997.41;;;30.04;60.40
48624;BME280;34422;45.802;16.114;2023-07-13T13:13:09;67059.66;;;30.67;57.03
48624;BME280;34422;45.802;16.114;2023-07-13T13:15:40;67048.75;;;30.52;57.41
48624;BME280;34422;45.802;16.114;2023-07-13T13:18:21;67030.09;;;30.40;58.47
48624;BME280;34422;45.802;16.114;2023-07-13T13:20:50;67046.06;;;30.47;56.34
48624;BME280;34422;45.802;16.114;2023-07-13T13:23:19;67049.88;;;30.51;57.54
48624;BME280;34422;45.802;16.114;2023-07-13T13:25:49;67053.16;;;30.56;58.14
48624;BME280;34422;45.802;16.114;2023-07-13T13:28:17;67029.03;;;30.36;58.85
48624;BME280;34422;45.802;16.114;2023-07-13T13:30:46;67025.19;;;30.35;57.80
48624;BME280;34422;45.802;16.114;2023-07-13T13:33:16;67006.66;;;30.16;58.37
48624;BME280;34422;45.802;16.114;2023-07-13T13:35:44;66978.28;;;29.84;60.02
48624;BME280;34422;45.802;16.114;2023-07-13T13:38:15;66961.31;;;29.71;60.26
48624;BME280;34422;45.802;16.114;2023-07-13T13:40:44;66967.78;;;29.82;61.27
48624;BME280;34422;45.802;16.114;2023-07-13T13:43:23;66968.88;;;29.83;61.53